»·PEaware :: IBE6170 KLAX-LEMD

IBE6170 :: KLAX-LEMD

FLIGHT INFORMATION

Flight Status: Arrived
Operator:
Iberia
More flights by this operator :: More flights under this callsign
Pilot: Cullen Chandler (7783)
Aircraft: AIRBUS A330-200
(A332)
More flights by this aircraft type
Origin: KLAX Los Angeles Intl
United States
Destination: LEMD Barajas
Spain
More flights between these airports :: More routes between these airports
Route: + / JNC026013 FOD BAE PECOK NOTAP YYB CEFOU/N0466F350 N303B IBERG/M079F350 49N050W 47N040W 45N030W 44N020W/M080F370 ARMED/N0463F380 EPOPO ADORO UL155 ZMR ZMR3A
File this flight plan on PilotEdge
Remarks:
Altitude:
(Current/Filed)
31,000ft
Speed:
(Current/Filed)
480kts
Departed: 28-Jul-17 08:59 PM
Arrived: 29-Jul-17 10:26 AM
Distance/Time
Traveled:
5064nm/13:27
Distance/Time
To Go:
Arrived

Flight Plot

Page will automatically refresh every two minutes.

Flight plan parsing failed; only flown route is shown


Map Options




Map Legend


Flown Route
Filed Route
Departure Airport
Arrival Airport
Navaid (VOR, NDB)
Fix

Horizontal Profiles

Position Reports

Time Latitude Longitude Heading Altitude Ground
Speed
28-Jul-17 20:40 33.940910 -118.409331 259 137ft 0kts
28-Jul-17 20:41 33.940910 -118.409331 259 137ft 0kts
28-Jul-17 20:42 33.940910 -118.409331 259 137ft 0kts
28-Jul-17 20:43 33.940910 -118.409331 259 137ft 0kts
28-Jul-17 20:44 33.940910 -118.409331 259 137ft 0kts
28-Jul-17 20:45 33.940910 -118.409331 259 137ft 0kts
28-Jul-17 20:46 33.940910 -118.409331 259 137ft 0kts
28-Jul-17 20:47 33.940910 -118.409330 259 137ft 0kts
28-Jul-17 20:48 33.940910 -118.409330 259 137ft 0kts
28-Jul-17 20:49 33.940922 -118.409245 260 137ft 2kts
28-Jul-17 20:50 33.941027 -118.408534 259 137ft 2kts
28-Jul-17 20:51 33.941452 -118.408244 169 137ft 2kts
28-Jul-17 20:52 33.941640 -118.408281 172 137ft 0kts
28-Jul-17 20:53 33.941640 -118.408281 172 137ft 0kts
28-Jul-17 20:54 33.941019 -118.408180 172 137ft 8kts
28-Jul-17 20:55 33.938779 -118.407727 145 137ft 4kts
28-Jul-17 20:56 33.938241 -118.405239 82 137ft 13kts
28-Jul-17 20:57 33.938734 -118.400430 82 137ft 15kts
28-Jul-17 20:58 33.939299 -118.394985 83 137ft 18kts
28-Jul-17 20:59 33.939981 -118.388250 83 137ft 22kts
28-Jul-17 21:00 33.940676 -118.381437 84 137ft 14kts
28-Jul-17 21:01 33.939628 -118.382233 262 137ft 34kts
28-Jul-17 21:02 33.935735 -118.420000 263 254ft 181kts
28-Jul-17 21:03 33.927803 -118.480560 250 2143ft 193kts
28-Jul-17 21:04 33.901999 -118.555379 248 3244ft 268kts
28-Jul-17 21:05 33.849837 -118.607438 164 5014ft 299kts
28-Jul-17 21:06 33.820544 -118.536616 51 7171ft 281kts
28-Jul-17 21:07 33.869802 -118.486994 36 8866ft 287kts
28-Jul-17 21:08 33.933354 -118.429376 36 10323ft 311kts
28-Jul-17 21:09 33.986427 -118.342426 57 11012ft 363kts
28-Jul-17 21:10 34.050796 -118.224597 55 13348ft 373kts
28-Jul-17 21:11 34.099663 -118.138282 54 14868ft 380kts
28-Jul-17 21:12 34.155779 -118.039108 54 16043ft 390kts
28-Jul-17 21:13 34.217267 -117.929830 54 17701ft 401kts
28-Jul-17 21:14 34.280429 -117.817203 54 19253ft 412kts
28-Jul-17 21:15 34.344389 -117.701992 59 20647ft 424kts
28-Jul-17 21:16 34.390465 -117.568395 67 21959ft 436kts
28-Jul-17 21:17 34.435340 -117.430884 67 23242ft 446kts
28-Jul-17 21:18 34.478868 -117.296537 68 24383ft 454kts
28-Jul-17 21:19 34.509021 -117.203128 68 25112ft 460kts
28-Jul-17 21:20 34.567237 -117.066816 49 26158ft 464kts
28-Jul-17 21:21 34.649224 -116.945132 48 27189ft 470kts
28-Jul-17 21:22 34.732260 -116.823729 51 28235ft 472kts
28-Jul-17 21:23 34.816123 -116.700525 51 29027ft 479kts
28-Jul-17 21:24 34.899771 -116.575172 52 29735ft 486kts
28-Jul-17 21:25 34.984696 -116.445539 52 30210ft 498kts
28-Jul-17 21:26 35.070908 -116.313357 53 30718ft 507kts
28-Jul-17 21:27 35.157581 -116.180136 53 30935ft 511kts
28-Jul-17 21:28 35.243982 -116.046742 53 30950ft 507kts
28-Jul-17 21:29 35.331306 -115.911370 53 30948ft 509kts
28-Jul-17 21:30 35.418348 -115.775910 53 30944ft 509kts
28-Jul-17 21:31 35.505322 -115.640027 53 30946ft 508kts
28-Jul-17 21:32 35.592211 -115.503743 53 30948ft 508kts
28-Jul-17 21:33 35.671948 -115.378201 53 30946ft 509kts
28-Jul-17 21:34 35.740116 -115.270406 54 30946ft 508kts
28-Jul-17 21:35 35.826133 -115.134019 54 30948ft 508kts
28-Jul-17 21:36 35.912049 -114.997268 53 30955ft 508kts
28-Jul-17 21:37 35.997705 -114.860675 52 30955ft 508kts
28-Jul-17 21:38 36.088331 -114.728533 51 30953ft 508kts
28-Jul-17 21:39 36.178526 -114.596670 51 30952ft 508kts
28-Jul-17 21:40 36.269244 -114.463351 51 30958ft 508kts
28-Jul-17 21:41 36.358802 -114.331187 51 30949ft 508kts
28-Jul-17 21:42 36.448360 -114.198403 51 30957ft 508kts
28-Jul-17 21:43 36.538346 -114.064571 51 30979ft 508kts
28-Jul-17 21:44 36.627955 -113.930764 51 30983ft 508kts
28-Jul-17 21:45 36.717645 -113.796302 51 30983ft 508kts
28-Jul-17 21:46 36.807290 -113.661363 51 30982ft 508kts
28-Jul-17 21:47 36.896966 -113.525830 51 30984ft 508kts
28-Jul-17 21:48 36.985547 -113.391419 51 30986ft 509kts
28-Jul-17 21:49 37.073550 -113.257237 52 30994ft 516kts
28-Jul-17 21:50 37.162522 -113.121271 52 31113ft 520kts
28-Jul-17 21:51 37.253140 -112.982044 52 31187ft 518kts
28-Jul-17 21:52 37.342848 -112.843658 51 31185ft 514kts
28-Jul-17 21:53 37.431951 -112.705673 51 31259ft 513kts
28-Jul-17 21:54 37.521398 -112.566535 51 31371ft 513kts
28-Jul-17 21:55 37.610206 -112.427795 51 31376ft 513kts
28-Jul-17 21:56 37.696449 -112.291594 54 31377ft 512kts
28-Jul-17 21:57 37.779842 -112.147261 55 31376ft 512kts
28-Jul-17 21:58 37.856397 -111.999113 65 31387ft 510kts
28-Jul-17 21:59 37.922894 -111.842163 63 31381ft 510kts
28-Jul-17 22:00 37.990195 -111.684656 63 31373ft 511kts
28-Jul-17 22:01 38.056945 -111.527699 63 31341ft 511kts
28-Jul-17 22:02 38.121325 -111.375772 62 31226ft 510kts
28-Jul-17 22:03 38.186841 -111.220223 63 31205ft 511kts
28-Jul-17 22:04 38.253158 -111.061996 63 31211ft 510kts
28-Jul-17 22:05 38.319014 -110.904447 65 31194ft 496kts
28-Jul-17 22:06 38.381499 -110.753438 65 31213ft 490kts
28-Jul-17 22:07 38.444374 -110.601194 66 31213ft 486kts
28-Jul-17 22:08 38.507153 -110.448402 65 31209ft 488kts
28-Jul-17 22:09 38.567873 -110.299848 66 31204ft 488kts
28-Jul-17 22:10 38.629627 -110.148049 66 31172ft 488kts
28-Jul-17 22:11 38.691512 -109.995236 66 31173ft 488kts
28-Jul-17 22:12 38.753233 -109.842060 66 31178ft 488kts
28-Jul-17 22:13 38.814702 -109.688756 66 31172ft 488kts
28-Jul-17 22:14 38.876180 -109.534656 66 31175ft 488kts
28-Jul-17 22:15 38.937597 -109.379927 66 31175ft 496kts
28-Jul-17 22:16 38.993183 -109.239103 67 31177ft 501kts
28-Jul-17 22:17 39.056229 -109.078740 67 31211ft 510kts
28-Jul-17 22:18 39.118474 -108.919037 63 31232ft 520kts
28-Jul-17 22:19 39.183423 -108.752886 64 31237ft 528kts
28-Jul-17 22:20 39.243299 -108.582656 70 31242ft 527kts
28-Jul-17 22:21 39.297129 -108.407952 68 31243ft 527kts
28-Jul-17 22:22 39.346981 -108.246510 69 31235ft 527kts
28-Jul-17 22:23 39.400540 -108.072123 69 31277ft 527kts
28-Jul-17 22:24 39.453711 -107.897887 69 31293ft 527kts
28-Jul-17 22:25 39.502181 -107.738082 69 31294ft 527kts
28-Jul-17 22:26 39.552693 -107.570535 69 31294ft 527kts
28-Jul-17 22:27 39.605419 -107.394521 69 31329ft 527kts
28-Jul-17 22:28 39.656069 -107.224235 70 31357ft 527kts
28-Jul-17 22:29 39.708348 -107.047426 70 31358ft 527kts
28-Jul-17 22:30 39.758860 -106.875571 72 31367ft 503kts
28-Jul-17 22:31 39.808815 -106.704317 72 31359ft 510kts
28-Jul-17 22:32 39.858503 -106.532958 72 31363ft 510kts
28-Jul-17 22:33 39.907930 -106.361389 72 31425ft 510kts
28-Jul-17 22:34 39.955130 -106.196398 72 31441ft 509kts
28-Jul-17 22:35 40.003803 -106.025249 72 31440ft 509kts
28-Jul-17 22:36 40.049681 -105.862912 72 31442ft 509kts
28-Jul-17 22:37 40.094540 -105.703156 72 31441ft 509kts
28-Jul-17 22:38 40.137527 -105.549585 72 31396ft 510kts
28-Jul-17 22:39 40.183134 -105.385180 72 31265ft 509kts
28-Jul-17 22:40 40.229273 -105.217632 73 31235ft 509kts
28-Jul-17 22:41 40.274620 -105.051945 73 31237ft 509kts
28-Jul-17 22:42 40.321794 -104.878443 72 31230ft 509kts
28-Jul-17 22:43 40.368691 -104.704872 72 31223ft 509kts
28-Jul-17 22:44 40.415475 -104.530430 72 31221ft 509kts
28-Jul-17 22:45 40.459402 -104.365508 72 31222ft 509kts
28-Jul-17 22:46 40.504468 -104.195063 73 31227ft 508kts
28-Jul-17 22:47 40.550227 -104.020889 73 31230ft 508kts
28-Jul-17 22:48 40.595758 -103.846351 73 31231ft 508kts
28-Jul-17 22:49 40.640949 -103.671872 73 31230ft 508kts
28-Jul-17 22:50 40.685992 -103.496711 73 31166ft 508kts
28-Jul-17 22:51 40.727819 -103.332902 74 31150ft 507kts
28-Jul-17 22:52 40.771694 -103.158469 72 31147ft 509kts
28-Jul-17 22:53 40.816763 -102.980538 70 31186ft 511kts
28-Jul-17 22:54 40.860611 -102.805267 70 31196ft 511kts
28-Jul-17 22:55 40.904524 -102.628172 70 31184ft 511kts
28-Jul-17 22:56 40.947992 -102.451577 70 31165ft 511kts
28-Jul-17 22:57 40.990740 -102.276470 70 31166ft 514kts
28-Jul-17 22:58 41.030952 -102.110615 70 31159ft 519kts
28-Jul-17 22:59 41.074704 -101.928859 70 31156ft 524kts
28-Jul-17 23:00 41.114497 -101.762641 69 31157ft 528kts
28-Jul-17 23:01 41.158263 -101.578335 69 31158ft 528kts
28-Jul-17 23:02 41.199470 -101.403171 69 31158ft 529kts
28-Jul-17 23:03 41.241896 -101.221243 70 31155ft 529kts
28-Jul-17 23:04 41.284885 -101.035516 70 31147ft 528kts
28-Jul-17 23:05 41.327308 -100.850635 69 31165ft 529kts
28-Jul-17 23:06 41.369938 -100.663542 69 31738ft 537kts
28-Jul-17 23:07 41.412677 -100.474224 69 32492ft 539kts
28-Jul-17 23:08 41.453936 -100.289857 70 33189ft 540kts
28-Jul-17 23:09 41.495779 -100.101202 70 34016ft 536kts
28-Jul-17 23:10 41.537264 -99.912665 70 34619ft 535kts
28-Jul-17 23:11 41.578511 -99.723547 70 35183ft 532kts
28-Jul-17 23:12 41.619244 -99.535153 70 35155ft 533kts
28-Jul-17 23:13 41.659464 -99.347481 71 35151ft 534kts
28-Jul-17 23:14 41.698961 -99.161402 71 35139ft 534kts
28-Jul-17 23:15 41.738817 -98.971897 70 35138ft 534kts
28-Jul-17 23:16 41.776195 -98.792921 69 35140ft 533kts
28-Jul-17 23:17 41.815525 -98.602804 69 35139ft 534kts
28-Jul-17 23:18 41.854371 -98.413260 69 35148ft 534kts
28-Jul-17 23:19 41.883413 -98.270295 70 35147ft 534kts
28-Jul-17 23:20 41.921832 -98.079684 70 35147ft 534kts
28-Jul-17 23:21 41.959963 -97.888761 70 35147ft 535kts
28-Jul-17 23:22 41.997741 -97.697791 70 35149ft 535kts
28-Jul-17 23:23 42.035212 -97.506547 70 35149ft 535kts
28-Jul-17 23:24 42.067148 -97.341973 71 35147ft 534kts
28-Jul-17 23:25 42.067148 -97.341973 71 35147ft 534kts
28-Jul-17 23:26 42.067148 -97.341973 71 35147ft 534kts
28-Jul-17 23:27 42.067148 -97.341973 71 35147ft 534kts
28-Jul-17 23:28 42.067148 -97.341973 71 35147ft 534kts
28-Jul-17 23:29 42.067148 -97.341973 71 35147ft 534kts
28-Jul-17 23:30 42.067148 -97.341973 71 35147ft 534kts
28-Jul-17 23:31 42.067148 -97.341973 71 35147ft 534kts
28-Jul-17 23:32 42.067148 -97.341973 71 35147ft 534kts
28-Jul-17 23:33 42.067148 -97.341973 71 35147ft 534kts
28-Jul-17 23:34 42.067148 -97.341973 71 35147ft 534kts
28-Jul-17 23:35 42.067148 -97.341973 71 35147ft 534kts
28-Jul-17 23:36 42.067148 -97.341973 71 35147ft 534kts
28-Jul-17 23:37 42.067148 -97.341973 71 35147ft 534kts
28-Jul-17 23:38 42.067148 -97.341973 71 35147ft 534kts
28-Jul-17 23:39 42.067148 -97.341973 71 35147ft 534kts
28-Jul-17 23:40 42.067148 -97.341973 71 35147ft 534kts
28-Jul-17 23:41 42.067148 -97.341973 71 35147ft 534kts
28-Jul-17 23:42 42.067148 -97.341973 71 35147ft 534kts
28-Jul-17 23:43 42.067148 -97.341973 71 35147ft 534kts
28-Jul-17 23:44 42.067148 -97.341973 71 35147ft 534kts
28-Jul-17 23:45 42.067148 -97.341973 71 35147ft 534kts
28-Jul-17 23:46 42.067148 -97.341973 71 35147ft 534kts
28-Jul-17 23:47 42.067148 -97.341973 71 35147ft 534kts
28-Jul-17 23:48 42.067148 -97.341973 71 35147ft 534kts
28-Jul-17 23:49 42.067148 -97.341973 71 35147ft 534kts
28-Jul-17 23:50 42.067148 -97.341973 71 35147ft 534kts
28-Jul-17 23:51 42.067148 -97.341973 71 35147ft 534kts
28-Jul-17 23:52 42.067148 -97.341973 71 35147ft 534kts
28-Jul-17 23:53 42.067148 -97.341973 71 35147ft 534kts
28-Jul-17 23:54 42.067148 -97.341973 71 35147ft 534kts
28-Jul-17 23:55 42.067148 -97.341973 71 35147ft 534kts
28-Jul-17 23:56 42.067148 -97.341973 71 35147ft 534kts
28-Jul-17 23:57 42.067148 -97.341973 71 35147ft 534kts
28-Jul-17 23:58 42.067148 -97.341973 71 35147ft 534kts
28-Jul-17 23:59 42.067148 -97.341973 71 35147ft 534kts
29-Jul-17 00:00 42.067148 -97.341973 71 35147ft 534kts
29-Jul-17 00:01 42.067148 -97.341973 71 35147ft 534kts
29-Jul-17 00:02 42.067148 -97.341973 71 35147ft 534kts
29-Jul-17 00:03 42.067148 -97.341973 71 35147ft 534kts
29-Jul-17 00:04 42.067148 -97.341973 71 35147ft 534kts
29-Jul-17 00:05 42.067148 -97.341973 71 35147ft 534kts
29-Jul-17 00:06 42.067148 -97.341973 71 35147ft 534kts
29-Jul-17 00:07 42.067148 -97.341973 71 35147ft 534kts
29-Jul-17 00:08 42.067148 -97.341973 71 35147ft 534kts
29-Jul-17 00:09 42.067148 -97.341973 71 35147ft 534kts
29-Jul-17 00:10 42.067148 -97.341973 71 35147ft 534kts
29-Jul-17 00:11 42.067148 -97.341973 71 35147ft 534kts
29-Jul-17 00:12 42.067148 -97.341973 71 35147ft 534kts
29-Jul-17 00:13 42.067148 -97.341973 71 35147ft 534kts
29-Jul-17 00:14 42.067148 -97.341973 71 35147ft 534kts
29-Jul-17 00:15 42.067148 -97.341973 71 35147ft 534kts
29-Jul-17 00:16 42.067148 -97.341973 71 35147ft 534kts
29-Jul-17 00:17 42.067148 -97.341973 71 35147ft 534kts
29-Jul-17 00:18 42.067148 -97.341973 71 35147ft 534kts
29-Jul-17 00:19 42.067148 -97.341973 71 35147ft 534kts
29-Jul-17 00:20 42.067148 -97.341973 71 35147ft 534kts
29-Jul-17 00:21 42.067148 -97.341973 71 35147ft 534kts
29-Jul-17 00:22 42.067148 -97.341973 71 35147ft 534kts
29-Jul-17 00:23 42.067148 -97.341973 71 35147ft 534kts
29-Jul-17 00:24 42.067148 -97.341973 71 35147ft 534kts
29-Jul-17 00:25 42.067148 -97.341973 71 35147ft 534kts
29-Jul-17 00:26 42.067148 -97.341973 71 35147ft 534kts
29-Jul-17 00:27 42.067148 -97.341973 71 35147ft 534kts
29-Jul-17 00:28 42.067148 -97.341973 71 35147ft 534kts
29-Jul-17 00:29 42.067148 -97.341973 71 35147ft 534kts
29-Jul-17 00:30 42.067148 -97.341973 71 35147ft 534kts
29-Jul-17 00:31 42.067148 -97.341973 71 35147ft 534kts
29-Jul-17 00:32 42.067148 -97.341973 71 35147ft 534kts
29-Jul-17 00:33 42.067148 -97.341973 71 35147ft 534kts
29-Jul-17 00:34 42.067148 -97.341973 71 35147ft 534kts
29-Jul-17 00:35 42.067148 -97.341973 71 35147ft 534kts
29-Jul-17 00:36 42.067148 -97.341973 71 35147ft 534kts
29-Jul-17 00:37 42.067148 -97.341973 71 35147ft 534kts
29-Jul-17 00:38 42.067148 -97.341973 71 35147ft 534kts
29-Jul-17 00:39 42.067148 -97.341973 71 35147ft 534kts
29-Jul-17 00:40 42.067148 -97.341973 71 35147ft 534kts
29-Jul-17 00:41 42.067148 -97.341973 71 35147ft 534kts
29-Jul-17 00:42 42.067148 -97.341973 71 35147ft 534kts
29-Jul-17 00:43 42.067148 -97.341973 71 35147ft 534kts
29-Jul-17 00:44 42.067148 -97.341973 71 35147ft 534kts
29-Jul-17 00:45 42.067148 -97.341973 71 35147ft 534kts
29-Jul-17 00:46 42.067148 -97.341973 71 35147ft 534kts
29-Jul-17 00:47 42.067148 -97.341973 71 35147ft 534kts
29-Jul-17 00:48 42.067148 -97.341973 71 35147ft 534kts
29-Jul-17 00:49 42.067148 -97.341973 71 35147ft 534kts
29-Jul-17 00:50 42.067148 -97.341973 71 35147ft 534kts
29-Jul-17 00:51 42.067148 -97.341973 71 35147ft 534kts
29-Jul-17 00:52 42.067148 -97.341973 71 35147ft 534kts
29-Jul-17 00:53 42.067148 -97.341973 71 35147ft 534kts
29-Jul-17 00:54 42.067148 -97.341973 71 35147ft 534kts
29-Jul-17 00:55 42.067148 -97.341973 71 35147ft 534kts
29-Jul-17 00:56 42.067148 -97.341973 71 35147ft 534kts
29-Jul-17 00:57 42.067148 -97.341973 71 35147ft 534kts
29-Jul-17 00:58 42.067148 -97.341973 71 35147ft 534kts
29-Jul-17 00:59 42.067148 -97.341973 71 35147ft 534kts
29-Jul-17 01:00 42.067148 -97.341973 71 35147ft 534kts
29-Jul-17 01:01 42.067148 -97.341973 71 35147ft 534kts
29-Jul-17 01:02 42.067148 -97.341973 71 35147ft 534kts
29-Jul-17 01:03 42.067148 -97.341973 71 35147ft 534kts
29-Jul-17 01:04 42.067148 -97.341973 71 35147ft 534kts
29-Jul-17 01:05 42.067148 -97.341973 71 35147ft 534kts
29-Jul-17 01:06 42.067148 -97.341973 71 35147ft 534kts
29-Jul-17 01:07 42.067148 -97.341973 71 35147ft 534kts
29-Jul-17 01:08 42.067148 -97.341973 71 35147ft 534kts
29-Jul-17 01:09 42.067148 -97.341973 71 35147ft 534kts
29-Jul-17 01:10 42.067148 -97.341973 71 35147ft 534kts
29-Jul-17 01:11 42.067148 -97.341973 71 35147ft 534kts
29-Jul-17 01:12 42.067148 -97.341973 71 35147ft 534kts
29-Jul-17 01:13 42.067148 -97.341973 71 35147ft 534kts
29-Jul-17 01:14 42.067148 -97.341973 71 35147ft 534kts
29-Jul-17 01:15 42.067148 -97.341973 71 35147ft 534kts
29-Jul-17 01:16 42.067148 -97.341973 71 35147ft 534kts
29-Jul-17 01:17 42.067148 -97.341973 71 35147ft 534kts
29-Jul-17 01:18 42.067148 -97.341973 71 35147ft 534kts
29-Jul-17 01:19 42.067148 -97.341973 71 35147ft 534kts
29-Jul-17 01:20 42.067148 -97.341973 71 35147ft 534kts
29-Jul-17 01:21 42.067148 -97.341973 71 35147ft 534kts
29-Jul-17 01:22 42.067148 -97.341973 71 35147ft 534kts
29-Jul-17 01:23 42.067148 -97.341973 71 35147ft 534kts
29-Jul-17 01:24 42.067148 -97.341973 71 35147ft 534kts
29-Jul-17 01:25 42.067148 -97.341973 71 35147ft 534kts
29-Jul-17 01:26 42.067148 -97.341973 71 35147ft 534kts
29-Jul-17 01:27 42.067148 -97.341973 71 35147ft 534kts
29-Jul-17 01:28 42.067148 -97.341973 71 35147ft 534kts
29-Jul-17 01:29 42.067148 -97.341973 71 35147ft 534kts
29-Jul-17 01:30 42.067148 -97.341973 71 35147ft 534kts
29-Jul-17 01:31 42.067148 -97.341973 71 35147ft 534kts
29-Jul-17 01:32 42.067148 -97.341973 71 35147ft 534kts
29-Jul-17 01:33 42.067148 -97.341973 71 35147ft 534kts
29-Jul-17 01:34 42.067148 -97.341973 71 35147ft 534kts
29-Jul-17 01:35 42.067148 -97.341973 71 35147ft 534kts
29-Jul-17 01:36 42.067148 -97.341973 71 35147ft 534kts
29-Jul-17 01:37 42.067148 -97.341973 71 35147ft 534kts
29-Jul-17 01:38 42.067148 -97.341973 71 35147ft 534kts
29-Jul-17 01:39 42.067148 -97.341973 71 35147ft 534kts
29-Jul-17 01:40 42.067148 -97.341973 71 35147ft 534kts
29-Jul-17 01:41 42.067148 -97.341973 71 35147ft 534kts
29-Jul-17 01:42 42.067148 -97.341973 71 35147ft 534kts
29-Jul-17 01:43 42.067148 -97.341973 71 35147ft 534kts
29-Jul-17 01:44 42.067148 -97.341973 71 35147ft 534kts
29-Jul-17 01:45 42.067148 -97.341973 71 35147ft 534kts
29-Jul-17 01:46 42.067148 -97.341973 71 35147ft 534kts
29-Jul-17 01:47 42.067148 -97.341973 71 35147ft 534kts
29-Jul-17 01:48 42.067148 -97.341973 71 35147ft 534kts
29-Jul-17 01:49 42.067148 -97.341973 71 35147ft 534kts
29-Jul-17 01:50 42.067148 -97.341973 71 35147ft 534kts
29-Jul-17 01:51 42.067148 -97.341973 71 35147ft 534kts
29-Jul-17 01:52 42.067148 -97.341973 71 35147ft 534kts
29-Jul-17 01:53 42.067148 -97.341973 71 35147ft 534kts
29-Jul-17 01:54 42.067148 -97.341973 71 35147ft 534kts
29-Jul-17 01:55 42.067148 -97.341973 71 35147ft 534kts
29-Jul-17 01:56 42.067148 -97.341973 71 35147ft 534kts
29-Jul-17 01:57 42.067148 -97.341973 71 35147ft 534kts
29-Jul-17 01:58 42.067148 -97.341973 71 35147ft 534kts
29-Jul-17 01:59 42.067148 -97.341973 71 35147ft 534kts
29-Jul-17 02:00 42.067148 -97.341973 71 35147ft 534kts
29-Jul-17 02:01 42.067148 -97.341973 71 35147ft 534kts
29-Jul-17 02:02 42.067148 -97.341973 71 35147ft 534kts
29-Jul-17 02:03 42.067148 -97.341973 71 35147ft 534kts
29-Jul-17 02:04 42.067148 -97.341973 71 35147ft 534kts
29-Jul-17 02:05 42.067148 -97.341973 71 35147ft 534kts
29-Jul-17 02:06 42.067148 -97.341973 71 35147ft 534kts
29-Jul-17 02:07 42.067148 -97.341973 71 35147ft 534kts
29-Jul-17 02:08 42.067148 -97.341973 71 35147ft 534kts
29-Jul-17 02:09 42.067148 -97.341973 71 35147ft 534kts
29-Jul-17 02:10 42.067148 -97.341973 71 35147ft 534kts
29-Jul-17 02:11 42.067148 -97.341973 71 35147ft 534kts
29-Jul-17 02:12 42.067148 -97.341973 71 35147ft 534kts
29-Jul-17 02:13 42.067148 -97.341973 71 35147ft 534kts
29-Jul-17 02:14 42.067148 -97.341973 71 35147ft 534kts
29-Jul-17 02:15 42.101514 -97.163357 71 35141ft 533kts
29-Jul-17 02:16 42.136118 -96.982240 69 35148ft 529kts
29-Jul-17 02:17 42.172052 -96.792357 69 35149ft 529kts
29-Jul-17 02:18 42.207672 -96.601920 69 35145ft 529kts
29-Jul-17 02:19 42.242898 -96.411685 69 35141ft 529kts
29-Jul-17 02:20 42.277329 -96.223712 70 35138ft 530kts
29-Jul-17 02:21 42.312027 -96.032487 70 35137ft 530kts
29-Jul-17 02:22 42.346481 -95.840672 70 35157ft 530kts
29-Jul-17 02:23 42.380450 -95.649573 70 35168ft 530kts
29-Jul-17 02:24 42.414181 -95.457817 70 35171ft 530kts
29-Jul-17 02:25 42.447469 -95.266444 70 35175ft 531kts
29-Jul-17 02:26 42.480721 -95.073269 70 35176ft 531kts
29-Jul-17 02:27 42.513514 -94.880505 70 35171ft 527kts
29-Jul-17 02:28 42.545733 -94.689548 69 35175ft 526kts
29-Jul-17 02:29 42.577580 -94.498470 69 35176ft 526kts
29-Jul-17 02:30 42.607694 -94.313288 73 35167ft 525kts
29-Jul-17 02:31 42.630565 -94.117905 74 35174ft 529kts
29-Jul-17 02:32 42.651880 -93.922360 74 35165ft 530kts
29-Jul-17 02:33 42.672732 -93.727270 74 35155ft 529kts
29-Jul-17 02:34 42.693291 -93.531674 74 35166ft 529kts
29-Jul-17 02:35 42.713404 -93.337050 75 35183ft 530kts
29-Jul-17 02:36 42.733183 -93.142186 75 35182ft 531kts
29-Jul-17 02:37 42.752738 -92.946253 75 35185ft 525kts
29-Jul-17 02:38 42.771734 -92.752586 75 35174ft 523kts
29-Jul-17 02:39 42.790366 -92.559069 75 35167ft 523kts
29-Jul-17 02:40 42.808812 -92.364146 75 35175ft 524kts
29-Jul-17 02:41 42.826527 -92.173114 76 35179ft 525kts
29-Jul-17 02:42 42.844356 -91.977457 76 35183ft 525kts
29-Jul-17 02:43 42.861843 -91.781729 76 35184ft 525kts
29-Jul-17 02:44 42.878947 -91.586501 76 35180ft 525kts
29-Jul-17 02:45 42.895687 -91.391428 76 35174ft 518kts
29-Jul-17 02:46 42.911778 -91.200177 77 35176ft 521kts
29-Jul-17 02:47 42.927603 -91.008153 77 35175ft 508kts
29-Jul-17 02:48 42.942853 -90.819170 78 35172ft 506kts
29-Jul-17 02:49 42.957700 -90.631289 78 35176ft 503kts
29-Jul-17 02:50 42.972242 -90.443326 78 35175ft 502kts
29-Jul-17 02:51 42.986356 -90.256718 79 35172ft 502kts
29-Jul-17 02:52 43.000201 -90.069749 79 35177ft 500kts
29-Jul-17 02:53 43.013659 -89.883811 79 35170ft 499kts
29-Jul-17 02:54 43.026841 -89.697426 79 35164ft 498kts
29-Jul-17 02:55 43.039651 -89.512031 79 35164ft 496kts
29-Jul-17 02:56 43.051078 -89.342769 80 35168ft 497kts
29-Jul-17 02:57 43.055872 -89.270430 80 35165ft 497kts
29-Jul-17 02:58 43.067699 -89.089352 80 35168ft 497kts
29-Jul-17 02:59 43.079516 -88.903477 79 35166ft 495kts
29-Jul-17 03:00 43.090968 -88.719126 79 35164ft 490kts
29-Jul-17 03:01 43.102112 -88.535474 79 35171ft 491kts
29-Jul-17 03:02 43.112956 -88.352938 79 35182ft 492kts
29-Jul-17 03:03 43.152635 -88.187290 58 35190ft 475kts
29-Jul-17 03:04 43.210020 -88.027313 57 35171ft 474kts
29-Jul-17 03:05 43.267313 -87.867932 57 35179ft 474kts
29-Jul-17 03:06 43.324686 -87.707452 57 35175ft 474kts
29-Jul-17 03:07 43.381835 -87.546662 57 35165ft 474kts
29-Jul-17 03:08 43.438597 -87.386036 57 35166ft 474kts
29-Jul-17 03:09 43.494948 -87.225484 58 35167ft 475kts
29-Jul-17 03:10 43.551412 -87.063837 58 35169ft 475kts
29-Jul-17 03:11 43.607919 -86.901115 59 35173ft 476kts
29-Jul-17 03:12 43.664265 -86.737775 59 35177ft 477kts
29-Jul-17 03:13 43.720573 -86.573624 59 35174ft 477kts
29-Jul-17 03:14 43.776402 -86.409890 59 35174ft 477kts
29-Jul-17 03:15 43.830805 -86.249189 59 35198ft 474kts
29-Jul-17 03:16 43.886133 -86.084970 59 35182ft 476kts
29-Jul-17 03:17 43.941192 -85.920549 59 35179ft 476kts
29-Jul-17 03:18 43.996197 -85.755248 59 35187ft 476kts
29-Jul-17 03:19 44.056915 -85.594716 56 35190ft 473kts
29-Jul-17 03:20 44.116072 -85.442899 55 35204ft 474kts
29-Jul-17 03:21 44.176967 -85.285652 56 35206ft 474kts
29-Jul-17 03:22 44.238931 -85.124701 57 35198ft 472kts
29-Jul-17 03:23 44.300082 -84.964916 58 35184ft 472kts
29-Jul-17 03:24 44.361176 -84.804231 58 35186ft 472kts
29-Jul-17 03:25 44.421746 -84.644104 58 35187ft 472kts
29-Jul-17 03:26 44.482193 -84.483368 58 35186ft 471kts
29-Jul-17 03:27 44.541837 -84.323868 59 35189ft 472kts
29-Jul-17 03:28 44.602007 -84.161857 59 35185ft 472kts
29-Jul-17 03:29 44.661894 -83.999831 59 35162ft 473kts
29-Jul-17 03:30 44.721148 -83.838547 59 35164ft 470kts
29-Jul-17 03:31 44.780459 -83.676159 59 35164ft 472kts
29-Jul-17 03:32 44.839522 -83.513488 59 35162ft 472kts
29-Jul-17 03:33 44.898382 -83.350408 59 35165ft 471kts
29-Jul-17 03:34 44.956459 -83.188384 59 35164ft 472kts
29-Jul-17 03:35 45.014990 -83.024296 60 35162ft 475kts
29-Jul-17 03:36 45.073317 -82.859780 61 35166ft 475kts
29-Jul-17 03:37 45.131062 -82.696162 61 35157ft 479kts
29-Jul-17 03:38 45.189223 -82.530083 61 35146ft 478kts
29-Jul-17 03:39 45.251969 -82.366436 58 35153ft 478kts
29-Jul-17 03:40 45.315992 -82.205798 58 35145ft 478kts
29-Jul-17 03:41 45.380642 -82.042811 58 35145ft 478kts
29-Jul-17 03:42 45.445035 -81.879503 58 35149ft 478kts
29-Jul-17 03:43 45.509342 -81.715438 58 35125ft 478kts
29-Jul-17 03:44 45.573337 -81.551212 58 35101ft 478kts
29-Jul-17 03:45 45.636979 -81.386920 58 35109ft 477kts
29-Jul-17 03:46 45.699011 -81.225694 59 35118ft 478kts
29-Jul-17 03:47 45.762353 -81.060220 59 35129ft 478kts
29-Jul-17 03:48 45.825575 -80.894061 59 35128ft 480kts
29-Jul-17 03:49 45.878203 -80.754934 59 35130ft 480kts
29-Jul-17 03:50 45.941115 -80.587714 59 35129ft 480kts
29-Jul-17 03:51 46.003831 -80.419982 59 35129ft 480kts
29-Jul-17 03:52 46.074540 -80.229499 60 35122ft 480kts
29-Jul-17 03:53 46.135034 -80.065882 60 35121ft 480kts
29-Jul-17 03:54 46.186541 -79.925567 60 35120ft 480kts
29-Jul-17 03:55 46.248426 -79.755956 60 35120ft 480kts
29-Jul-17 03:56 46.309985 -79.586162 60 35120ft 480kts
29-Jul-17 03:57 46.366838 -79.413386 72 35129ft 482kts
29-Jul-17 03:58 46.400650 -79.232424 74 35117ft 483kts
29-Jul-17 03:59 46.434070 -79.045122 72 35119ft 485kts
29-Jul-17 04:00 46.467141 -78.858034 72 35122ft 481kts
29-Jul-17 04:01 46.499827 -78.671088 72 35119ft 482kts
29-Jul-17 04:02 46.532171 -78.484042 72 35119ft 482kts
29-Jul-17 04:03 46.562816 -78.304862 72 35084ft 481kts
29-Jul-17 04:04 46.594595 -78.117033 72 35067ft 482kts
29-Jul-17 04:05 46.626053 -77.929254 72 35062ft 482kts
29-Jul-17 04:06 46.657255 -77.740877 72 35063ft 482kts
29-Jul-17 04:07 46.688189 -77.552010 72 35071ft 482kts
29-Jul-17 04:08 46.718770 -77.363223 73 35065ft 482kts
29-Jul-17 04:09 46.747709 -77.182435 73 35061ft 483kts
29-Jul-17 04:10 46.777740 -76.992752 73 35067ft 483kts
29-Jul-17 04:11 46.807674 -76.801521 72 35064ft 490kts
29-Jul-17 04:12 46.837595 -76.608299 72 35065ft 490kts
29-Jul-17 04:13 46.867044 -76.415613 72 35062ft 490kts
29-Jul-17 04:14 46.895245 -76.228851 73 35065ft 492kts
29-Jul-17 04:15 46.924090 -76.035395 72 35068ft 490kts
29-Jul-17 04:16 46.952649 -75.841759 72 35036ft 490kts
29-Jul-17 04:17 46.980852 -75.647926 71 35039ft 488kts
29-Jul-17 04:18 47.008754 -75.453698 71 35038ft 490kts
29-Jul-17 04:19 47.035173 -75.267485 72 35034ft 490kts
29-Jul-17 04:20 47.062479 -75.072624 71 35028ft 489kts
29-Jul-17 04:21 47.089394 -74.877897 71 35025ft 490kts
29-Jul-17 04:22 47.115265 -74.689305 71 35035ft 491kts
29-Jul-17 04:23 47.141660 -74.493473 71 35034ft 491kts
29-Jul-17 04:24 47.166589 -74.305775 72 35026ft 491kts
29-Jul-17 04:25 47.192275 -74.109619 72 35031ft 491kts
29-Jul-17 04:26 47.217696 -73.912990 72 35042ft 492kts
29-Jul-17 04:27 47.242749 -73.716357 72 35036ft 492kts
29-Jul-17 04:28 47.267489 -73.519398 72 35037ft 492kts
29-Jul-17 04:29 47.291140 -73.328289 73 35039ft 492kts
29-Jul-17 04:30 47.314942 -73.133134 73 35041ft 494kts
29-Jul-17 04:31 47.338810 -72.934584 74 35039ft 496kts
29-Jul-17 04:32 47.362324 -72.735606 74 35038ft 495kts
29-Jul-17 04:33 47.385622 -72.535630 74 35045ft 495kts
29-Jul-17 04:34 47.408079 -72.339795 74 35046ft 496kts
29-Jul-17 04:35 47.430191 -72.143644 74 35046ft 496kts
29-Jul-17 04:36 47.452470 -71.943019 75 35031ft 497kts
29-Jul-17 04:37 47.474319 -71.743001 74 35027ft 497kts
29-Jul-17 04:38 47.495955 -71.541551 75 35023ft 497kts
29-Jul-17 04:39 47.516834 -71.343680 75 35030ft 496kts
29-Jul-17 04:40 47.537471 -71.144655 75 35032ft 498kts
29-Jul-17 04:41 47.558127 -70.942436 76 35047ft 501kts
29-Jul-17 04:42 47.578601 -70.737691 77 35073ft 504kts
29-Jul-17 04:43 47.598686 -70.532913 77 35065ft 505kts
29-Jul-17 04:44 47.617881 -70.333712 78 35063ft 505kts
29-Jul-17 04:45 47.637102 -70.130263 78 35064ft 505kts
29-Jul-17 04:46 47.656114 -69.925219 78 35063ft 505kts
29-Jul-17 04:47 47.674796 -69.719711 78 35033ft 504kts
29-Jul-17 04:48 47.693115 -69.513946 78 34992ft 504kts
29-Jul-17 04:49 47.710370 -69.316061 79 34987ft 505kts
29-Jul-17 04:50 47.727911 -69.110497 79 34990ft 505kts
29-Jul-17 04:51 47.751789 -68.904308 75 34993ft 516kts
29-Jul-17 04:52 47.782745 -68.696729 75 34995ft 514kts
29-Jul-17 04:53 47.813362 -68.489485 75 34985ft 516kts
29-Jul-17 04:54 47.842279 -68.291417 76 34992ft 516kts
29-Jul-17 04:55 47.872144 -68.083493 76 34990ft 515kts
29-Jul-17 04:56 47.901698 -67.875453 76 34989ft 515kts
29-Jul-17 04:57 47.930911 -67.666705 76 34993ft 515kts
29-Jul-17 04:58 47.959772 -67.457750 76 34991ft 516kts
29-Jul-17 04:59 47.987057 -67.257204 77 34990ft 516kts
29-Jul-17 05:00 48.015409 -67.046134 78 34967ft 525kts
29-Jul-17 05:01 48.043605 -66.832260 79 34954ft 527kts
29-Jul-17 05:02 48.071581 -66.617407 79 34944ft 528kts
29-Jul-17 05:03 48.099033 -66.402878 79 34948ft 528kts
29-Jul-17 05:04 48.125057 -66.197631 80 34947ft 528kts
29-Jul-17 05:05 48.151845 -65.982270 80 34946ft 528kts
29-Jul-17 05:06 48.178136 -65.767192 80 34943ft 528kts
29-Jul-17 05:07 48.204086 -65.551239 80 34944ft 528kts
29-Jul-17 05:08 48.229325 -65.337832 81 34944ft 528kts
29-Jul-17 05:09 48.254391 -65.122106 81 34916ft 527kts
29-Jul-17 05:10 48.279292 -64.904724 82 34903ft 535kts
29-Jul-17 05:11 48.304219 -64.682025 82 34901ft 543kts
29-Jul-17 05:12 48.328782 -64.459578 82 34900ft 543kts
29-Jul-17 05:13 48.352734 -64.238188 83 34903ft 541kts
29-Jul-17 05:14 48.376418 -64.015040 83 34899ft 542kts
29-Jul-17 05:15 48.399689 -63.791762 83 34901ft 542kts
29-Jul-17 05:16 48.422382 -63.569489 83 34908ft 538kts
29-Jul-17 05:17 48.444492 -63.348771 84 34906ft 539kts
29-Jul-17 05:18 48.466333 -63.126042 84 34915ft 539kts
29-Jul-17 05:19 48.487948 -62.901417 85 34915ft 552kts
29-Jul-17 05:20 48.509521 -62.671937 85 34919ft 552kts
29-Jul-17 05:21 48.530647 -62.442247 85 34925ft 553kts
29-Jul-17 05:22 48.551189 -62.213715 86 34912ft 552kts
29-Jul-17 05:23 48.571286 -61.984597 86 34918ft 552kts
29-Jul-17 05:24 48.591017 -61.755095 86 34917ft 552kts
29-Jul-17 05:25 48.610319 -61.524565 86 34921ft 553kts
29-Jul-17 05:26 48.628963 -61.296750 87 34917ft 552kts
29-Jul-17 05:27 48.647273 -61.066621 86 34922ft 554kts
29-Jul-17 05:28 48.665246 -60.834859 87 34923ft 556kts
29-Jul-17 05:29 48.682806 -60.602963 86 34919ft 556kts
29-Jul-17 05:30 48.699891 -60.370543 87 34929ft 556kts
29-Jul-17 05:31 48.716270 -60.141172 86 34945ft 557kts
29-Jul-17 05:32 48.732423 -59.908584 87 34949ft 556kts
29-Jul-17 05:33 48.748113 -59.675328 87 34952ft 555kts
29-Jul-17 05:34 48.763211 -59.443320 87 34951ft 555kts
29-Jul-17 05:35 48.777889 -59.212562 88 34935ft 556kts
29-Jul-17 05:36 48.792121 -58.980346 88 34949ft 554kts
29-Jul-17 05:37 48.805645 -58.751005 87 34950ft 538kts
29-Jul-17 05:38 48.818659 -58.523787 87 34947ft 542kts
29-Jul-17 05:39 48.830878 -58.302662 88 34943ft 541kts
29-Jul-17 05:40 48.843002 -58.074983 88 34945ft 541kts
29-Jul-17 05:41 48.854632 -57.847871 88 34974ft 541kts
29-Jul-17 05:42 48.865818 -57.620872 88 34975ft 541kts
29-Jul-17 05:43 48.876600 -57.392853 88 34976ft 541kts
29-Jul-17 05:44 48.886830 -57.167012 88 34975ft 541kts
29-Jul-17 05:45 48.896646 -56.940643 89 34974ft 534kts
29-Jul-17 05:46 48.905892 -56.716838 89 34976ft 533kts
29-Jul-17 05:47 48.914727 -56.492933 89 34975ft 533kts
29-Jul-17 05:48 48.923054 -56.270936 90 34975ft 532kts
29-Jul-17 05:49 48.931033 -56.046318 90 35000ft 532kts
29-Jul-17 05:50 48.938565 -55.821872 89 35039ft 533kts
29-Jul-17 05:51 48.945671 -55.597295 89 35040ft 533kts
29-Jul-17 05:52 48.952330 -55.373066 89 35039ft 532kts
29-Jul-17 05:53 48.958504 -55.150460 90 35036ft 532kts
29-Jul-17 05:54 48.964304 -54.925036 90 35039ft 536kts
29-Jul-17 05:55 48.969724 -54.698678 89 35039ft 535kts
29-Jul-17 05:56 48.974656 -54.473390 90 35038ft 535kts
29-Jul-17 05:57 48.979134 -54.248838 90 35038ft 534kts
29-Jul-17 05:58 48.983193 -54.023283 90 35038ft 534kts
29-Jul-17 05:59 48.986818 -53.797386 90 35037ft 534kts
29-Jul-17 06:00 48.989993 -53.572175 90 35040ft 533kts
29-Jul-17 06:01 48.992719 -53.347396 91 35042ft 533kts
29-Jul-17 06:02 48.995038 -53.121617 91 35070ft 533kts
29-Jul-17 06:03 48.996844 -52.896370 90 35091ft 534kts
29-Jul-17 06:04 48.998303 -52.671126 90 35090ft 534kts
29-Jul-17 06:05 48.999279 -52.445771 90 35097ft 534kts
29-Jul-17 06:06 48.999835 -52.220441 91 35091ft 534kts
29-Jul-17 06:07 48.999934 -52.032141 91 35094ft 534kts
29-Jul-17 06:08 49.001444 -51.806570 90 35093ft 534kts
29-Jul-17 06:09 49.002987 -51.542960 90 35096ft 534kts
29-Jul-17 06:10 49.003821 -51.317558 91 35091ft 534kts
29-Jul-17 06:11 49.004188 -51.129269 91 35096ft 534kts
29-Jul-17 06:12 49.004199 -50.904401 90 35092ft 529kts
29-Jul-17 06:13 49.003816 -50.680512 90 35090ft 529kts
29-Jul-17 06:14 49.002979 -50.456534 90 35094ft 529kts
29-Jul-17 06:15 49.001726 -50.234113 91 35094ft 529kts
29-Jul-17 06:16 48.999055 -50.011848 98 35085ft 527kts
29-Jul-17 06:17 48.968737 -49.793832 104 35085ft 526kts
29-Jul-17 06:18 48.935640 -49.577133 104 35087ft 527kts
29-Jul-17 06:19 48.902103 -49.360885 104 35085ft 527kts
29-Jul-17 06:20 48.868249 -49.145352 105 35083ft 526kts
29-Jul-17 06:21 48.834043 -48.930597 105 35082ft 521kts
29-Jul-17 06:22 48.799648 -48.717352 105 35085ft 522kts
29-Jul-17 06:23 48.764824 -48.504289 105 35086ft 521kts
29-Jul-17 06:24 48.730312 -48.295528 106 35080ft 521kts
29-Jul-17 06:25 48.694757 -48.083233 106 35081ft 521kts
29-Jul-17 06:26 48.658807 -47.871247 106 35083ft 521kts
29-Jul-17 06:27 48.622476 -47.659588 106 35087ft 521kts
29-Jul-17 06:28 48.585690 -47.447848 106 35082ft 521kts
29-Jul-17 06:29 48.548687 -47.237255 107 35084ft 521kts
29-Jul-17 06:30 48.511158 -47.026295 107 35081ft 521kts
29-Jul-17 06:31 48.473386 -46.816374 107 35082ft 521kts
29-Jul-17 06:32 48.435033 -46.605794 107 35084ft 522kts
29-Jul-17 06:33 48.396283 -46.395452 107 35085ft 521kts
29-Jul-17 06:34 48.357331 -46.186232 108 35085ft 521kts
29-Jul-17 06:35 48.317969 -45.977293 108 35084ft 521kts
29-Jul-17 06:36 48.278296 -45.769021 108 35083ft 521kts
29-Jul-17 06:37 48.238041 -45.560023 108 35084ft 521kts
29-Jul-17 06:38 48.197473 -45.351634 108 35084ft 521kts
29-Jul-17 06:39 48.156555 -45.143619 108 35082ft 521kts
29-Jul-17 06:40 48.115236 -44.935739 110 35083ft 525kts
29-Jul-17 06:41 48.073238 -44.727066 110 35086ft 525kts
29-Jul-17 06:42 48.030815 -44.518349 110 35083ft 525kts
29-Jul-17 06:43 47.988112 -44.310350 111 35080ft 525kts
29-Jul-17 06:44 47.944960 -44.102336 111 35083ft 525kts
29-Jul-17 06:45 47.901526 -43.895175 111 35084ft 525kts
29-Jul-17 06:46 47.857707 -43.688866 111 35085ft 525kts
29-Jul-17 06:47 47.813573 -43.482649 111 35085ft 524kts
29-Jul-17 06:48 47.769063 -43.276573 112 35084ft 523kts
29-Jul-17 06:49 47.724079 -43.070341 112 35084ft 529kts
29-Jul-17 06:50 47.678103 -42.861937 113 35084ft 535kts
29-Jul-17 06:51 47.631537 -42.652892 113 35085ft 534kts
29-Jul-17 06:52 47.584659 -42.444458 113 35086ft 535kts
29-Jul-17 06:53 47.537524 -42.236706 114 35080ft 533kts
29-Jul-17 06:54 47.489933 -42.029197 114 35085ft 534kts
29-Jul-17 06:55 47.441842 -41.821563 114 35086ft 534kts
29-Jul-17 06:56 47.393511 -41.614820 114 35083ft 534kts
29-Jul-17 06:57 47.344878 -41.408730 114 35082ft 534kts
29-Jul-17 06:58 47.295740 -41.202380 115 35085ft 533kts
29-Jul-17 06:59 47.246343 -40.996955 114 35082ft 533kts
29-Jul-17 07:00 47.196217 -40.790529 114 35083ft 541kts
29-Jul-17 07:01 47.145437 -40.583187 115 35156ft 540kts
29-Jul-17 07:02 47.094283 -40.376329 115 35298ft 540kts
29-Jul-17 07:03 47.042946 -40.170431 115 35313ft 539kts
29-Jul-17 07:04 46.993974 -39.963635 105 35323ft 545kts
29-Jul-17 07:05 46.961771 -39.747130 106 35315ft 546kts
29-Jul-17 07:06 46.928521 -39.530784 106 35320ft 546kts
29-Jul-17 07:07 46.894860 -39.314710 107 35318ft 546kts
29-Jul-17 07:08 46.860668 -39.098636 107 35319ft 546kts
29-Jul-17 07:09 46.826007 -38.882226 105 35319ft 551kts
29-Jul-17 07:10 46.790935 -38.665372 105 35320ft 550kts
29-Jul-17 07:11 46.755286 -38.448134 105 35320ft 550kts
29-Jul-17 07:12 46.719742 -38.234119 106 35316ft 550kts
29-Jul-17 07:13 46.683297 -38.017576 106 35319ft 550kts
29-Jul-17 07:14 46.646608 -37.802280 106 35320ft 550kts
29-Jul-17 07:15 46.609426 -37.586724 106 35319ft 550kts
29-Jul-17 07:16 46.571877 -37.371703 106 35321ft 550kts
29-Jul-17 07:17 46.533954 -37.157062 106 35317ft 550kts
29-Jul-17 07:18 46.492343 -36.945871 110 35698ft 545kts
29-Jul-17 07:19 46.439493 -36.744031 116 37373ft 523kts
29-Jul-17 07:20 46.375870 -36.561845 121 38650ft 505kts
29-Jul-17 07:21 46.308532 -36.383097 122 39017ft 510kts
29-Jul-17 07:22 46.239882 -36.203259 122 39331ft 514kts
29-Jul-17 07:23 46.171225 -36.022121 122 39604ft 517kts
29-Jul-17 07:24 46.102428 -35.839235 121 39867ft 521kts
29-Jul-17 07:25 46.033757 -35.655412 121 40117ft 524kts
29-Jul-17 07:26 45.965044 -35.470306 120 40355ft 528kts
29-Jul-17 07:27 45.896214 -35.283461 121 40573ft 531kts
29-Jul-17 07:28 45.826751 -35.096921 122 40728ft 532kts
29-Jul-17 07:29 45.754889 -34.911439 122 40794ft 536kts
29-Jul-17 07:30 45.680365 -34.726586 123 40880ft 539kts
29-Jul-17 07:31 45.603444 -34.543077 124 41030ft 541kts
29-Jul-17 07:32 45.524047 -34.360881 125 41208ft 543kts
29-Jul-17 07:33 45.443342 -34.180282 126 41323ft 543kts
29-Jul-17 07:34 45.361696 -33.998821 126 41417ft 545kts
29-Jul-17 07:35 45.279777 -33.818109 126 41513ft 546kts
29-Jul-17 07:36 45.197437 -33.637926 126 41511ft 546kts
29-Jul-17 07:37 45.114687 -33.458560 126 41475ft 545kts
29-Jul-17 07:38 45.031918 -33.280504 126 41568ft 541kts
29-Jul-17 07:39 44.950785 -33.102801 125 41442ft 536kts
29-Jul-17 07:40 44.871448 -32.925386 124 41430ft 538kts
29-Jul-17 07:41 44.790099 -32.748614 125 41514ft 539kts
29-Jul-17 07:42 44.705970 -32.573822 126 41591ft 540kts
29-Jul-17 07:43 44.606640 -32.419082 142 41508ft 532kts
29-Jul-17 07:44 44.481161 -32.324864 179 41506ft 501kts
29-Jul-17 07:45 44.368675 -32.387834 249 41412ft 424kts
29-Jul-17 07:46 44.407632 -32.512377 345 41153ft 433kts
29-Jul-17 07:47 44.484696 -32.391069 102 40737ft 530kts
29-Jul-17 07:48 44.403518 -32.220016 108 37813ft 555kts
29-Jul-17 07:49 44.400347 -32.023666 61 37414ft 496kts
29-Jul-17 07:50 44.457189 -31.850238 60 37313ft 489kts
29-Jul-17 07:51 44.509903 -31.676677 60 37320ft 483kts
29-Jul-17 07:52 44.561888 -31.504062 60 37320ft 478kts
29-Jul-17 07:53 44.612982 -31.333241 61 37315ft 474kts
29-Jul-17 07:54 44.663229 -31.163925 61 37318ft 469kts
29-Jul-17 07:55 44.712869 -30.995634 60 37319ft 465kts
29-Jul-17 07:56 44.761846 -30.828667 60 37322ft 463kts
29-Jul-17 07:57 44.810871 -30.659229 60 37768ft 470kts
29-Jul-17 07:58 44.859531 -30.487545 60 38231ft 476kts
29-Jul-17 07:59 44.908139 -30.312809 61 38367ft 490kts
29-Jul-17 08:00 44.963992 -30.126737 61 37328ft 525kts
29-Jul-17 08:01 44.994139 -29.925485 88 37311ft 549kts
29-Jul-17 08:02 44.983631 -29.710977 91 37319ft 547kts
29-Jul-17 08:03 44.971147 -29.497278 91 37322ft 546kts
29-Jul-17 08:04 44.958312 -29.284635 92 37318ft 544kts
29-Jul-17 08:05 44.945024 -29.071574 92 37316ft 545kts
29-Jul-17 08:06 44.931341 -28.858783 91 37318ft 550kts
29-Jul-17 08:07 44.917163 -28.644066 91 37319ft 551kts
29-Jul-17 08:08 44.902531 -28.428864 91 37320ft 551kts
29-Jul-17 08:09 44.887818 -28.218298 92 37317ft 552kts
29-Jul-17 08:10 44.872377 -28.003280 92 37316ft 551kts
29-Jul-17 08:11 44.856607 -27.789337 92 37319ft 551kts
29-Jul-17 08:12 44.840359 -27.574477 92 37320ft 551kts
29-Jul-17 08:13 44.823783 -27.360697 92 37320ft 551kts
29-Jul-17 08:14 44.806746 -27.146171 93 37317ft 552kts
29-Jul-17 08:15 44.789329 -26.932040 93 37318ft 553kts
29-Jul-17 08:16 44.771404 -26.716979 93 37319ft 553kts
29-Jul-17 08:17 44.753201 -26.503349 93 37321ft 556kts
29-Jul-17 08:18 44.734515 -26.288732 94 37319ft 555kts
29-Jul-17 08:19 44.715388 -26.074128 94 37316ft 555kts
29-Jul-17 08:20 44.695800 -25.858878 94 37319ft 555kts
29-Jul-17 08:21 44.675835 -25.644045 94 37319ft 555kts
29-Jul-17 08:22 44.658918 -25.465391 94 37319ft 555kts
29-Jul-17 08:23 44.638288 -25.251526 95 37317ft 555kts
29-Jul-17 08:24 44.613602 -25.001487 94 37315ft 561kts
29-Jul-17 08:25 44.591793 -24.784670 93 37319ft 561kts
29-Jul-17 08:26 44.573373 -24.604982 93 37318ft 561kts
29-Jul-17 08:27 44.550841 -24.388965 93 37321ft 561kts
29-Jul-17 08:28 44.527908 -24.173073 94 37319ft 561kts
29-Jul-17 08:29 44.504498 -23.956821 94 37319ft 561kts
29-Jul-17 08:30 44.480720 -23.741201 94 37319ft 561kts
29-Jul-17 08:31 44.456595 -23.526067 94 37319ft 562kts
29-Jul-17 08:32 44.432159 -23.311768 95 37316ft 562kts
29-Jul-17 08:33 44.407063 -23.095910 95 37319ft 562kts
29-Jul-17 08:34 44.381777 -22.881574 96 37320ft 560kts
29-Jul-17 08:35 44.356077 -22.667687 96 37319ft 559kts
29-Jul-17 08:36 44.329972 -22.453956 96 37323ft 559kts
29-Jul-17 08:37 44.303561 -22.240892 97 37314ft 560kts
29-Jul-17 08:38 44.276743 -22.028000 97 37316ft 559kts
29-Jul-17 08:39 44.249428 -21.814614 97 37290ft 559kts
29-Jul-17 08:40 44.221752 -21.601659 97 37294ft 560kts
29-Jul-17 08:41 44.193737 -21.389211 97 37296ft 559kts
29-Jul-17 08:42 44.165217 -21.176235 98 37294ft 560kts
29-Jul-17 08:43 44.136532 -20.964726 99 37296ft 554kts
29-Jul-17 08:44 44.107586 -20.755108 100 37293ft 551kts
29-Jul-17 08:45 44.078381 -20.546327 100 37292ft 551kts
29-Jul-17 08:46 44.048783 -20.337551 100 37292ft 551kts
29-Jul-17 08:47 44.018896 -20.129464 100 37293ft 552kts
29-Jul-17 08:48 43.982973 -19.923229 106 37293ft 552kts
29-Jul-17 08:49 43.938573 -19.720029 107 37292ft 551kts
29-Jul-17 08:50 43.893442 -19.516868 107 37291ft 552kts
29-Jul-17 08:51 43.847908 -19.314177 108 37288ft 551kts
29-Jul-17 08:52 43.802244 -19.112235 108 37291ft 551kts
29-Jul-17 08:53 43.756163 -18.910503 109 37292ft 550kts
29-Jul-17 08:54 43.709610 -18.708689 109 37292ft 551kts
29-Jul-17 08:55 43.662869 -18.507791 109 37293ft 551kts
29-Jul-17 08:56 43.616308 -18.309370 109 37287ft 550kts
29-Jul-17 08:57 43.569682 -18.112462 109 37219ft 551kts
29-Jul-17 08:58 43.521996 -17.912904 109 37155ft 550kts
29-Jul-17 08:59 43.473902 -17.713397 110 37159ft 550kts
29-Jul-17 09:00 43.425252 -17.513358 109 37159ft 551kts
29-Jul-17 09:01 43.376530 -17.314689 110 37153ft 550kts
29-Jul-17 09:02 43.327561 -17.116665 110 37156ft 550kts
29-Jul-17 09:03 43.277960 -16.917908 111 37158ft 551kts
29-Jul-17 09:04 43.228033 -16.719626 111 37158ft 552kts
29-Jul-17 09:05 43.177672 -16.521284 111 37158ft 552kts
29-Jul-17 09:06 43.127064 -16.323557 112 37153ft 552kts
29-Jul-17 09:07 43.076015 -16.125755 112 37157ft 552kts
29-Jul-17 09:08 43.024516 -15.927934 112 37158ft 551kts
29-Jul-17 09:09 42.973368 -15.733057 112 37158ft 543kts
29-Jul-17 09:10 42.922443 -15.540588 111 37158ft 536kts
29-Jul-17 09:11 42.871858 -15.351342 111 37157ft 529kts
29-Jul-17 09:12 42.821419 -15.163544 112 37156ft 531kts
29-Jul-17 09:13 42.770440 -14.975154 113 37157ft 530kts
29-Jul-17 09:14 42.719400 -14.788272 113 37157ft 529kts
29-Jul-17 09:15 42.667948 -14.601223 113 37161ft 529kts
29-Jul-17 09:16 42.616149 -14.414298 113 37158ft 529kts
29-Jul-17 09:17 42.564443 -14.228961 114 37155ft 529kts
29-Jul-17 09:18 42.512007 -14.042522 114 37158ft 529kts
29-Jul-17 09:19 42.480081 -13.848110 102 37150ft 535kts
29-Jul-17 09:20 42.453839 -13.650831 102 37155ft 534kts
29-Jul-17 09:21 42.427163 -13.452952 102 37158ft 534kts
29-Jul-17 09:22 42.400262 -13.255752 102 37159ft 533kts
29-Jul-17 09:23 42.373078 -13.059298 103 37156ft 532kts
29-Jul-17 09:24 42.345578 -12.863258 103 37158ft 530kts
29-Jul-17 09:25 42.317843 -12.668041 103 37158ft 530kts
29-Jul-17 09:26 42.289757 -12.472794 103 37158ft 530kts
29-Jul-17 09:27 42.261370 -12.277861 103 37157ft 530kts
29-Jul-17 09:28 42.232626 -12.083016 103 37157ft 530kts
29-Jul-17 09:29 42.203596 -11.888660 103 37157ft 530kts
29-Jul-17 09:30 42.174226 -11.694357 103 37157ft 530kts
29-Jul-17 09:31 42.144527 -11.500306 103 37158ft 530kts
29-Jul-17 09:32 42.116278 -11.317707 104 37153ft 530kts
29-Jul-17 09:33 42.086363 -11.126553 104 37156ft 530kts
29-Jul-17 09:34 42.055778 -10.933551 104 37157ft 527kts
29-Jul-17 09:35 42.025224 -10.742733 104 37158ft 520kts
29-Jul-17 09:36 41.994548 -10.553334 104 37157ft 521kts
29-Jul-17 09:37 41.963395 -10.363155 104 37158ft 521kts
29-Jul-17 09:38 41.934335 -10.177230 98 37156ft 522kts
29-Jul-17 09:39 41.915382 -9.984817 99 37150ft 522kts
29-Jul-17 09:40 41.896031 -9.793220 99 37136ft 523kts
29-Jul-17 09:41 41.876149 -9.600139 99 37116ft 523kts
29-Jul-17 09:42 41.856092 -9.407729 99 37096ft 523kts
29-Jul-17 09:43 41.835995 -9.217926 99 37075ft 522kts
29-Jul-17 09:44 41.815357 -9.026419 99 37090ft 519kts
29-Jul-17 09:45 41.794592 -8.836588 99 37154ft 512kts
29-Jul-17 09:46 41.773692 -8.648394 99 37159ft 513kts
29-Jul-17 09:47 41.752707 -8.462374 99 37151ft 513kts
29-Jul-17 09:48 41.732248 -8.283475 99 37131ft 513kts
29-Jul-17 09:49 41.710413 -8.095488 99 37109ft 513kts
29-Jul-17 09:50 41.688192 -7.906896 100 37086ft 513kts
29-Jul-17 09:51 41.665773 -7.719396 99 37065ft 513kts
29-Jul-17 09:52 41.642912 -7.530876 100 37045ft 513kts
29-Jul-17 09:53 41.619816 -7.343116 100 37022ft 514kts
29-Jul-17 09:54 41.596680 -7.157456 100 37011ft 513kts
29-Jul-17 09:55 41.573195 -6.971720 100 37114ft 509kts
29-Jul-17 09:56 41.549375 -6.785683 100 37135ft 508kts
29-Jul-17 09:57 41.525317 -6.600345 100 37137ft 508kts
29-Jul-17 09:58 41.500938 -6.414963 100 37138ft 508kts
29-Jul-17 09:59 41.487404 -6.231915 83 37147ft 507kts
29-Jul-17 10:00 41.500734 -6.045272 83 37131ft 508kts
29-Jul-17 10:01 41.513663 -5.869436 83 37134ft 509kts
29-Jul-17 10:02 41.526662 -5.689065 83 37136ft 509kts
29-Jul-17 10:03 41.506249 -5.506537 104 35839ft 516kts
29-Jul-17 10:04 41.474401 -5.328042 104 33271ft 522kts
29-Jul-17 10:05 41.444403 -5.160587 104 31237ft 516kts
29-Jul-17 10:06 41.411634 -4.979429 104 29392ft 500kts
29-Jul-17 10:07 41.379277 -4.802280 105 27536ft 487kts
29-Jul-17 10:08 41.347558 -4.630262 105 25596ft 476kts
29-Jul-17 10:09 41.316556 -4.463961 105 23811ft 463kts
29-Jul-17 10:10 41.274029 -4.319842 138 22109ft 440kts
29-Jul-17 10:11 41.185633 -4.231012 149 20345ft 427kts
29-Jul-17 10:12 41.090909 -4.140688 130 18474ft 423kts
29-Jul-17 10:13 41.042765 -3.999625 112 16628ft 420kts
29-Jul-17 10:14 41.002776 -3.860435 112 15968ft 391kts
29-Jul-17 10:15 40.965443 -3.730214 112 15275ft 368kts
29-Jul-17 10:16 40.930486 -3.608264 112 14736ft 344kts
29-Jul-17 10:17 40.898402 -3.496164 112 14007ft 331kts
29-Jul-17 10:18 40.854689 -3.408540 172 13645ft 287kts
29-Jul-17 10:19 40.793007 -3.457969 224 12585ft 269kts
29-Jul-17 10:20 40.738911 -3.525097 233 11619ft 265kts
29-Jul-17 10:21 40.766487 -3.591845 358 10535ft 279kts
29-Jul-17 10:22 40.842804 -3.578815 33 9430ft 289kts
29-Jul-17 10:23 40.833221 -3.497245 172 8381ft 270kts
29-Jul-17 10:24 40.764611 -3.526757 204 7338ft 265kts
29-Jul-17 10:25 40.697813 -3.563732 204 6196ft 256kts
29-Jul-17 10:26 40.629321 -3.575645 187 4756ft 243kts
29-Jul-17 10:27 40.567839 -3.574769 184 3199ft 209kts
29-Jul-17 10:28 40.514614 -3.574594 182 2019ft 168kts
29-Jul-17 10:29 40.493434 -3.574658 171 2013ft 16kts
29-Jul-17 10:30 40.492321 -3.571292 16 2013ft 20kts
29-Jul-17 10:31 40.494084 -3.569261 88 2013ft 6kts
29-Jul-17 10:32 40.494086 -3.568920 89 2013ft 0kts
29-Jul-17 10:33 40.494086 -3.568920 89 2013ft 0kts

Navigation Log

Ident Type
Flight plan parsing failed, navigation log unavailable